createdAt,value
2019-06-20T00:02:18.906Z,20.77
2019-06-20T00:04:48.685Z,19.27
2019-06-20T00:07:18.430Z,17.77
2019-06-20T00:09:52.433Z,18.77
2019-06-20T00:12:21.128Z,15.58
2019-06-20T00:14:50.779Z,22.40
2019-06-20T00:17:20.507Z,19.45
2019-06-20T00:19:50.183Z,16.23
2019-06-20T00:22:19.856Z,19.15
2019-06-20T00:24:49.597Z,16.65
2019-06-20T00:27:19.291Z,17.95
2019-06-20T00:29:48.952Z,16.57
2019-06-20T00:32:18.759Z,19.02
2019-06-20T00:34:48.384Z,16.32
2019-06-20T00:37:18.069Z,21.15
2019-06-20T00:39:47.820Z,17.80
2019-06-20T00:42:17.498Z,16.70
2019-06-20T00:44:47.162Z,16.12
2019-06-20T00:47:16.843Z,18.67
2019-06-20T00:49:46.578Z,18.65
2019-06-20T00:52:16.213Z,17.70
2019-06-20T00:54:45.966Z,16.15
2019-06-20T00:57:15.624Z,20.50
2019-06-20T00:59:45.317Z,21.23
2019-06-20T01:02:15.055Z,19.07
2019-06-20T01:04:44.737Z,16.75
2019-06-20T01:07:14.391Z,20.08
2019-06-20T01:09:44.069Z,18.15
2019-06-20T01:12:13.778Z,24.47
2019-06-20T01:14:43.537Z,19.50
2019-06-20T01:17:13.192Z,16.77
2019-06-20T01:19:42.985Z,14.15
2019-06-20T01:22:12.694Z,17.85
2019-06-20T01:24:42.364Z,19.05
2019-06-20T01:27:12.035Z,15.32
2019-06-20T01:29:41.748Z,17.05
2019-06-20T01:32:11.395Z,15.98
2019-06-20T01:34:41.077Z,17.70
2019-06-20T01:37:10.755Z,17.60
2019-06-20T01:39:40.423Z,20.62
2019-06-20T01:42:10.173Z,18.02
2019-06-20T01:44:40.013Z,16.40
2019-06-20T01:47:09.635Z,18.80
2019-06-20T01:49:39.297Z,25.05
2019-06-20T01:52:09.043Z,15.58
2019-06-20T01:54:38.844Z,18.10
2019-06-20T01:57:08.584Z,15.03
2019-06-20T01:59:38.322Z,16.85
2019-06-20T02:02:08.053Z,19.52
2019-06-20T02:04:37.804Z,16.25
2019-06-20T02:07:07.538Z,14.30
2019-06-20T02:09:37.229Z,14.78
2019-06-20T02:12:07.039Z,15.30
2019-06-20T02:14:36.659Z,13.30
2019-06-20T02:17:06.490Z,15.60
2019-06-20T02:19:36.214Z,27.00
2019-06-20T02:22:06.094Z,16.90
2019-06-20T02:24:35.775Z,14.73
2019-06-20T02:27:05.673Z,18.82
2019-06-20T02:29:35.323Z,15.58
2019-06-20T02:32:04.942Z,15.50
2019-06-20T02:34:34.615Z,17.92
2019-06-20T02:37:04.257Z,18.32
2019-06-20T02:39:33.932Z,15.18
2019-06-20T02:42:04.763Z,18.15
2019-06-20T02:44:34.459Z,17.37
2019-06-20T02:47:04.315Z,15.70
2019-06-20T02:49:34.037Z,18.15
2019-06-20T02:52:04.637Z,17.77
2019-06-20T02:54:34.346Z,20.48
2019-06-20T02:57:03.991Z,20.37
2019-06-20T02:59:33.733Z,17.85
2019-06-20T03:02:03.402Z,17.80
2019-06-20T03:04:33.128Z,19.70
2019-06-20T03:07:02.767Z,18.05
2019-06-20T03:09:32.436Z,16.65
2019-06-20T03:12:02.118Z,18.05
2019-06-20T03:14:44.610Z,20.05
2019-06-20T03:17:03.238Z,16.15
2019-06-20T03:19:32.902Z,16.77
2019-06-20T03:22:02.567Z,16.82
2019-06-20T03:24:32.217Z,16.07
2019-06-20T03:27:01.931Z,23.98
2019-06-20T03:29:59.999Z,15.20
2019-06-20T03:32:30.484Z,17.67
2019-06-20T03:35:00.194Z,18.67
2019-06-20T03:37:30.604Z,17.95
2019-06-20T03:40:00.320Z,14.47
2019-06-20T03:42:29.976Z,18.50
2019-06-20T03:45:03.015Z,17.40
2019-06-20T03:47:36.099Z,17.48
2019-06-20T03:50:06.440Z,18.40
2019-06-20T03:52:42.107Z,16.48
2019-06-20T03:55:12.492Z,17.17
2019-06-20T03:57:42.286Z,13.85
2019-06-20T04:00:12.220Z,24.05
2019-06-20T04:02:42.082Z,15.28
2019-06-20T04:05:11.893Z,14.18
2019-06-20T04:07:41.539Z,15.00
2019-06-20T04:10:11.255Z,16.70
2019-06-20T04:12:40.947Z,17.20
2019-06-20T04:15:18.894Z,17.42
2019-06-20T04:17:41.936Z,13.95
2019-06-20T04:20:11.582Z,18.70
2019-06-20T04:22:41.224Z,17.75
2019-06-20T04:25:10.946Z,13.80
2019-06-20T04:27:40.599Z,13.15
2019-06-20T04:30:10.591Z,18.07
2019-06-20T04:32:40.244Z,15.95
2019-06-20T04:35:10.147Z,15.40
2019-06-20T04:37:39.751Z,15.30
2019-06-20T04:40:09.627Z,18.35
2019-06-20T04:42:39.316Z,16.95
2019-06-20T04:45:35.526Z,16.93
2019-06-20T04:48:05.568Z,15.08
2019-06-20T04:50:35.532Z,15.55
2019-06-20T04:53:05.327Z,14.73
2019-06-20T04:55:35.076Z,15.63
2019-06-20T04:58:04.810Z,17.35
2019-06-20T05:00:34.464Z,17.25
2019-06-20T05:03:04.850Z,17.30
2019-06-20T05:05:34.510Z,15.98
2019-06-20T05:08:04.143Z,21.12
2019-06-20T05:10:33.822Z,18.67
2019-06-20T05:13:03.564Z,19.12
2019-06-20T05:15:33.257Z,17.17
2019-06-20T05:18:02.936Z,18.90
2019-06-20T05:20:32.588Z,14.55
2019-06-20T05:23:02.299Z,14.87
2019-06-20T05:25:32.012Z,16.35
2019-06-20T05:28:01.685Z,17.05
2019-06-20T05:30:31.404Z,16.15
2019-06-20T05:33:01.059Z,16.82
2019-06-20T05:35:30.832Z,15.55
2019-06-20T05:38:00.483Z,17.07
2019-06-20T05:40:30.202Z,15.85
2019-06-20T05:42:59.908Z,16.07
2019-06-20T05:45:29.578Z,25.30
2019-06-20T05:47:59.253Z,14.05
2019-06-20T05:50:28.938Z,15.38
2019-06-20T05:52:58.585Z,17.95
2019-06-20T05:55:28.374Z,17.57
2019-06-20T05:57:58.025Z,18.42
2019-06-20T06:00:28.222Z,19.70
2019-06-20T06:02:58.291Z,19.30
2019-06-20T06:05:28.000Z,17.15
2019-06-20T06:07:58.482Z,18.23
2019-06-20T06:10:28.259Z,13.15
2019-06-20T06:12:57.970Z,13.90
2019-06-20T06:15:29.276Z,13.20
2019-06-20T06:17:59.031Z,19.62
2019-06-20T06:20:28.906Z,11.30
2019-06-20T06:22:58.821Z,16.60
2019-06-20T06:25:30.019Z,15.15
2019-06-20T06:27:59.698Z,13.13
2019-06-20T06:30:29.501Z,18.35
2019-06-20T06:32:59.229Z,16.30
2019-06-20T06:35:29.121Z,16.85
2019-06-20T06:37:58.857Z,14.00
2019-06-20T06:40:29.013Z,18.00
2019-06-20T06:42:58.767Z,15.55
2019-06-20T06:45:28.726Z,16.52
2019-06-20T06:47:58.649Z,14.85
2019-06-20T06:50:28.433Z,21.07
2019-06-20T06:52:58.941Z,21.85
2019-06-20T06:55:28.614Z,15.32
2019-06-20T06:57:58.532Z,18.50
2019-06-20T07:00:28.279Z,16.35
2019-06-20T07:03:00.521Z,14.35
2019-06-20T07:05:30.224Z,17.90
2019-06-20T07:07:59.983Z,16.57
2019-06-20T07:10:29.808Z,16.90
2019-06-20T07:12:59.899Z,15.95
2019-06-20T07:15:31.233Z,17.50
2019-06-20T07:18:00.956Z,14.90
2019-06-20T07:20:30.703Z,16.75
2019-06-20T07:23:00.336Z,16.05
2019-06-20T07:25:31.148Z,14.20
2019-06-20T07:28:00.936Z,19.23
2019-06-20T07:30:30.592Z,17.67
2019-06-20T07:33:00.325Z,14.98
2019-06-20T07:35:29.988Z,13.35
2019-06-20T07:37:59.697Z,12.58
2019-06-20T07:40:29.422Z,12.47
2019-06-20T07:42:59.121Z,10.98
2019-06-20T07:45:29.497Z,9.48
2019-06-20T07:47:59.219Z,14.93
2019-06-20T07:50:28.849Z,9.03
2019-06-20T07:53:02.591Z,10.58
2019-06-20T07:55:29.921Z,8.90
2019-06-20T07:57:59.596Z,10.58
2019-06-20T08:00:29.543Z,12.98
2019-06-20T08:02:59.224Z,11.08
2019-06-20T08:05:28.926Z,12.33
2019-06-20T08:07:58.632Z,12.98
2019-06-20T08:10:28.559Z,8.50
2019-06-20T08:12:58.360Z,10.28
2019-06-20T08:15:28.271Z,12.25
2019-06-20T08:17:58.497Z,13.40
2019-06-20T08:20:28.923Z,12.07
2019-06-20T08:22:58.579Z,8.98
2019-06-20T08:25:28.341Z,9.00
2019-06-20T08:27:59.421Z,11.90
2019-06-20T08:30:31.359Z,8.90
2019-06-20T08:33:03.613Z,10.30
2019-06-20T08:35:33.440Z,6.85
2019-06-20T08:38:05.190Z,7.15
2019-06-20T08:40:40.168Z,7.17
2019-06-20T08:43:10.116Z,7.17
2019-06-20T08:45:40.783Z,8.18
2019-06-20T08:48:10.553Z,8.90
2019-06-20T08:50:40.252Z,6.67
2019-06-20T08:53:10.037Z,10.08
2019-06-20T08:55:39.874Z,11.38
2019-06-20T08:58:09.687Z,8.10
2019-06-20T09:00:40.221Z,10.72
2019-06-20T09:03:09.880Z,10.38
2019-06-20T09:05:39.597Z,9.98
2019-06-20T09:08:11.489Z,10.15
2019-06-20T09:10:42.272Z,12.55
2019-06-20T09:13:13.037Z,8.73
2019-06-20T09:15:43.875Z,11.95
2019-06-20T09:18:14.004Z,10.43
2019-06-20T09:20:43.707Z,9.53
2019-06-20T09:23:13.469Z,8.23
2019-06-20T09:25:43.233Z,7.55
2019-06-20T09:28:12.883Z,10.78
2019-06-20T09:30:43.416Z,12.88
2019-06-20T09:33:13.137Z,7.35
2019-06-20T09:35:42.799Z,12.82
2019-06-20T09:38:12.619Z,10.03
2019-06-20T09:40:42.312Z,10.80
2019-06-20T09:43:26.553Z,14.60
2019-06-20T09:45:43.524Z,13.22
2019-06-20T09:48:13.256Z,9.33
2019-06-20T09:50:42.969Z,9.25
2019-06-20T09:53:12.716Z,13.38
2019-06-20T09:55:42.440Z,12.10
2019-06-20T09:58:12.120Z,13.30
2019-06-20T10:00:41.939Z,11.12
2019-06-20T10:03:11.627Z,12.70
2019-06-20T10:05:41.324Z,11.93
2019-06-20T10:08:10.997Z,10.25
2019-06-20T10:10:40.786Z,13.55
2019-06-20T10:13:10.533Z,14.68
2019-06-20T10:15:41.375Z,11.50
2019-06-20T10:18:11.174Z,10.98
2019-06-20T10:20:40.846Z,8.03
2019-06-20T10:23:10.628Z,10.40
2019-06-20T10:25:41.828Z,8.95
2019-06-20T10:28:11.596Z,8.93
2019-06-20T10:30:41.335Z,9.28
2019-06-20T10:33:11.128Z,15.03
2019-06-20T10:35:40.867Z,9.05
2019-06-20T10:38:10.674Z,9.28
2019-06-20T10:40:40.349Z,10.98
2019-06-20T10:43:10.075Z,13.05
2019-06-20T10:45:40.027Z,10.25
2019-06-20T10:48:09.683Z,8.50
2019-06-20T10:50:39.379Z,8.70
2019-06-20T10:53:09.039Z,11.20
2019-06-20T10:55:38.783Z,12.18
2019-06-20T10:58:08.578Z,9.50
2019-06-20T11:00:39.798Z,10.03
2019-06-20T11:03:09.839Z,10.28
2019-06-20T11:05:40.881Z,11.12
2019-06-20T11:08:10.988Z,6.22
2019-06-20T11:10:42.204Z,10.13
2019-06-20T11:13:12.193Z,10.70
2019-06-20T11:15:44.079Z,5.72
2019-06-20T11:18:13.990Z,9.40
2019-06-20T11:20:44.410Z,6.90
2019-06-20T11:23:14.085Z,10.13
2019-06-20T11:25:43.779Z,12.13
2019-06-20T11:28:13.576Z,8.23
2019-06-20T11:30:54.022Z,8.18
2019-06-20T11:33:14.786Z,9.38
2019-06-20T11:35:44.557Z,9.50
2019-06-20T11:38:14.233Z,7.00
2019-06-20T11:40:43.976Z,6.03
2019-06-20T11:43:13.742Z,8.03
2019-06-20T11:45:43.484Z,5.75
2019-06-20T11:48:13.126Z,12.23
2019-06-20T11:50:42.848Z,5.85
2019-06-20T11:53:12.562Z,9.85
2019-06-20T11:55:42.408Z,8.35
2019-06-20T11:58:12.101Z,14.50
2019-06-20T12:00:41.783Z,5.92
2019-06-20T12:03:11.575Z,6.80
2019-06-20T12:05:41.922Z,8.78
2019-06-20T12:08:12.700Z,5.62
2019-06-20T12:10:43.157Z,12.58
2019-06-20T12:13:12.826Z,6.20
2019-06-20T12:15:42.827Z,10.08
2019-06-20T12:18:12.844Z,8.88
2019-06-20T12:20:42.870Z,8.03
2019-06-20T12:23:12.809Z,6.67
2019-06-20T12:25:42.670Z,10.25
2019-06-20T12:28:12.630Z,8.38
2019-06-20T12:30:43.547Z,6.55
2019-06-20T12:33:13.325Z,7.58
2019-06-20T12:35:44.443Z,13.70
2019-06-20T12:38:15.200Z,10.45
2019-06-20T12:40:46.147Z,14.90
2019-06-20T12:43:16.162Z,9.35
2019-06-20T12:45:47.456Z,11.78
2019-06-20T12:48:18.133Z,8.48
2019-06-20T12:50:47.946Z,10.48
2019-06-20T12:53:17.624Z,7.65
2019-06-20T12:55:47.582Z,17.95
2019-06-20T12:58:17.408Z,11.75
2019-06-20T13:00:47.127Z,10.98
2019-06-20T13:03:16.838Z,9.23
2019-06-20T13:05:47.082Z,9.13
2019-06-20T13:08:16.809Z,6.90
2019-06-20T13:10:46.561Z,9.28
2019-06-20T13:13:16.292Z,10.88
2019-06-20T13:15:46.981Z,15.28
2019-06-20T13:18:16.786Z,12.93
2019-06-20T13:20:48.553Z,19.37
2019-06-20T13:23:18.299Z,9.50
2019-06-20T13:25:48.868Z,4.55
2019-06-20T13:28:18.845Z,7.22
2019-06-20T13:30:52.200Z,9.23
2019-06-20T13:33:21.836Z,10.48
2019-06-20T13:35:51.538Z,7.12
2019-06-20T13:38:21.295Z,7.40
2019-06-20T13:40:51.097Z,6.90
2019-06-20T13:43:20.855Z,9.78
2019-06-20T13:45:52.053Z,6.67
2019-06-20T13:48:22.230Z,9.58
2019-06-20T13:50:51.896Z,13.93
2019-06-20T13:53:21.604Z,7.22
2019-06-20T13:55:51.313Z,7.72
2019-06-20T13:58:20.973Z,7.45
2019-06-20T14:00:51.009Z,7.67
2019-06-20T14:03:20.960Z,6.58
2019-06-20T14:05:51.708Z,9.73
2019-06-20T14:08:21.475Z,6.80
2019-06-20T14:10:52.311Z,7.97
2019-06-20T14:13:22.293Z,7.92
2019-06-20T14:15:53.378Z,6.60
2019-06-20T14:18:23.955Z,7.25
2019-06-20T14:20:55.157Z,10.95
2019-06-20T14:23:25.472Z,6.80
2019-06-20T14:25:56.303Z,7.03
2019-06-20T14:28:26.057Z,6.42
2019-06-20T14:30:55.772Z,6.85
2019-06-20T14:33:25.551Z,6.95
2019-06-20T14:35:55.361Z,8.75
2019-06-20T14:38:25.029Z,6.95
2019-06-20T14:40:54.736Z,8.65
2019-06-20T14:43:24.489Z,11.35
2019-06-20T14:45:54.161Z,6.60
2019-06-20T14:48:25.332Z,7.08
2019-06-20T14:50:55.491Z,7.05
2019-06-20T14:53:25.428Z,6.22
2019-06-20T14:55:55.232Z,6.55
2019-06-20T14:58:25.009Z,10.15
2019-06-20T15:00:54.755Z,9.90
2019-06-20T15:03:24.476Z,8.58
2019-06-20T15:05:54.633Z,10.38
2019-06-20T15:08:24.634Z,10.78
2019-06-20T15:10:54.329Z,6.12
2019-06-20T15:13:24.034Z,6.30
2019-06-20T15:15:53.762Z,9.80
2019-06-20T15:18:23.456Z,6.20
2019-06-20T15:20:56.130Z,5.60
2019-06-20T15:23:24.540Z,8.98
2019-06-20T15:25:54.289Z,4.75
2019-06-20T15:28:26.656Z,5.42
2019-06-20T15:30:57.316Z,6.47
2019-06-20T15:33:27.131Z,6.15
2019-06-20T15:35:58.309Z,5.15
2019-06-20T15:38:28.235Z,4.55
2019-06-20T15:40:57.961Z,6.72
2019-06-20T15:43:27.640Z,4.40
2019-06-20T15:45:58.410Z,6.45
2019-06-20T15:48:28.144Z,4.55
2019-06-20T15:50:57.853Z,4.83
2019-06-20T15:53:27.816Z,5.60
2019-06-20T15:55:57.615Z,4.05
2019-06-20T15:58:27.458Z,5.08
2019-06-20T16:00:57.162Z,5.75
2019-06-20T16:03:26.805Z,9.13
2019-06-20T16:05:56.544Z,5.22
2019-06-20T16:08:26.249Z,5.72
2019-06-20T16:10:56.018Z,6.42
2019-06-20T16:13:25.742Z,5.85
2019-06-20T16:15:55.517Z,5.83
2019-06-20T16:18:25.263Z,4.95
2019-06-20T16:20:55.006Z,4.78
2019-06-20T16:23:24.735Z,5.97
2019-06-20T16:25:54.759Z,6.20
2019-06-20T16:28:24.574Z,6.20
2019-06-20T16:31:07.991Z,5.03
2019-06-20T16:33:25.957Z,3.55
2019-06-20T16:35:55.760Z,4.22
2019-06-20T16:38:25.476Z,4.33
2019-06-20T16:40:55.201Z,5.58
2019-06-20T16:43:24.866Z,3.77
2019-06-20T16:45:54.540Z,6.70
2019-06-20T16:48:24.376Z,5.30
2019-06-20T16:50:54.075Z,6.25
2019-06-20T16:53:23.796Z,5.40
2019-06-20T16:55:53.533Z,4.42
2019-06-20T16:58:23.237Z,5.55
2019-06-20T17:00:53.045Z,6.10
2019-06-20T17:03:22.676Z,5.58
2019-06-20T17:05:52.435Z,4.80
2019-06-20T17:08:22.125Z,5.00
2019-06-20T17:10:51.894Z,5.55
2019-06-20T17:13:21.671Z,5.62
2019-06-20T17:15:51.330Z,6.00
2019-06-20T17:18:21.642Z,6.53
2019-06-20T17:20:51.336Z,6.72
2019-06-20T17:23:21.040Z,4.95
2019-06-20T17:25:50.780Z,5.80
2019-06-20T17:28:20.457Z,7.65
2019-06-20T17:30:50.194Z,5.58
2019-06-20T17:33:19.950Z,7.75
2019-06-20T17:35:49.688Z,9.88
2019-06-20T17:38:19.457Z,5.80
2019-06-20T17:40:49.245Z,5.70
2019-06-20T17:43:18.945Z,7.58
2019-06-20T17:45:48.815Z,7.33
2019-06-20T17:48:18.607Z,6.58
2019-06-20T17:50:48.373Z,5.37
2019-06-20T17:53:18.073Z,8.75
2019-06-20T17:55:47.789Z,8.53
2019-06-20T17:58:17.507Z,8.45
2019-06-20T18:00:47.206Z,6.58
2019-06-20T18:03:16.954Z,6.87
2019-06-20T18:05:46.697Z,7.53
2019-06-20T18:08:16.437Z,6.55
2019-06-20T18:10:46.163Z,12.73
2019-06-20T18:13:15.889Z,7.47
2019-06-20T18:15:45.567Z,6.95
2019-06-20T18:18:15.503Z,7.90
2019-06-20T18:20:45.303Z,8.13
2019-06-20T18:23:15.010Z,5.30
2019-06-20T18:25:44.750Z,6.75
2019-06-20T18:28:14.531Z,6.22
2019-06-20T18:30:45.913Z,9.23
2019-06-20T18:33:16.321Z,10.72
2019-06-20T18:35:46.061Z,7.37
2019-06-20T18:38:15.705Z,6.92
2019-06-20T18:40:45.509Z,11.03
2019-06-20T18:43:15.276Z,5.80
2019-06-20T18:45:45.055Z,8.18
2019-06-20T18:48:14.791Z,6.42
2019-06-20T18:50:44.597Z,8.15
2019-06-20T18:53:14.306Z,7.35
2019-06-20T18:55:43.999Z,13.90
2019-06-20T18:58:13.837Z,8.75
2019-06-20T19:00:43.518Z,12.28
2019-06-20T19:03:13.303Z,9.70
2019-06-20T19:05:43.006Z,9.73
2019-06-20T19:08:12.691Z,9.63
2019-06-20T19:10:42.421Z,8.30
2019-06-20T19:13:13.064Z,6.95
2019-06-20T19:15:42.916Z,8.50
2019-06-20T19:18:12.651Z,7.62
2019-06-20T19:20:42.444Z,7.45
2019-06-20T19:23:12.211Z,13.03
2019-06-20T19:25:41.864Z,9.65
2019-06-20T19:28:11.710Z,7.17
2019-06-20T19:30:48.785Z,7.55
2019-06-20T19:33:18.557Z,10.60
2019-06-20T19:35:48.478Z,9.43
2019-06-20T19:38:18.124Z,11.50
2019-06-20T19:40:49.124Z,10.32
2019-06-20T19:43:18.904Z,8.55
2019-06-20T19:45:48.781Z,9.90
2019-06-20T19:48:18.689Z,7.87
2019-06-20T19:50:48.430Z,8.43
2019-06-20T19:53:18.116Z,8.30
2019-06-20T19:55:47.892Z,7.50
2019-06-20T19:58:17.665Z,10.48
2019-06-20T20:00:47.501Z,7.20
2019-06-20T20:03:17.291Z,8.63
2019-06-20T20:05:47.046Z,9.53
2019-06-20T20:08:16.993Z,11.28
2019-06-20T20:10:47.830Z,12.40
2019-06-20T20:13:18.476Z,13.43
2019-06-20T20:15:48.277Z,13.43
2019-06-20T20:18:18.175Z,11.83
2019-06-20T20:20:48.327Z,11.45
2019-06-20T20:23:18.036Z,12.53
2019-06-20T20:25:47.928Z,10.03
2019-06-20T20:28:17.711Z,11.03
2019-06-20T20:30:47.387Z,12.28
2019-06-20T20:33:30.032Z,11.53
2019-06-20T20:36:01.952Z,12.35
2019-06-20T20:38:31.258Z,10.58
2019-06-20T20:41:00.919Z,13.85
2019-06-20T20:43:30.686Z,13.20
2019-06-20T20:46:00.403Z,9.33
2019-06-20T20:48:30.121Z,13.40
2019-06-20T20:50:59.819Z,12.35
2019-06-20T20:53:29.544Z,11.60
2019-06-20T20:56:02.311Z,11.43
2019-06-20T20:58:30.852Z,14.98
2019-06-20T21:01:16.100Z,16.07
2019-06-20T21:03:45.851Z,14.35
2019-06-20T21:06:15.636Z,13.58
2019-06-20T21:08:45.337Z,14.47
2019-06-20T21:11:15.041Z,12.25
2019-06-20T21:13:44.760Z,11.90
2019-06-20T21:16:14.500Z,12.00
2019-06-20T21:18:44.203Z,15.88
2019-06-20T21:21:13.996Z,13.03
2019-06-20T21:23:43.792Z,12.33
2019-06-20T21:26:13.554Z,11.20
2019-06-20T21:28:43.200Z,11.93
2019-06-20T21:31:12.981Z,16.00
2019-06-20T21:33:42.672Z,13.18
2019-06-20T21:36:12.373Z,16.55
2019-06-20T21:38:42.081Z,9.65
2019-06-20T21:41:12.611Z,12.70
2019-06-20T21:43:42.419Z,12.30
2019-06-20T21:46:12.074Z,13.18
2019-06-20T21:48:41.771Z,9.05
2019-06-20T21:51:11.439Z,11.80
2019-06-20T21:53:41.099Z,15.63
2019-06-20T21:56:10.818Z,12.55
2019-06-20T21:58:40.554Z,11.25
2019-06-20T22:01:10.697Z,12.10
2019-06-20T22:03:40.386Z,10.13
2019-06-20T22:06:22.993Z,9.78
2019-06-20T22:08:41.431Z,13.13
2019-06-20T22:11:11.076Z,10.25
2019-06-20T22:13:43.998Z,9.05
2019-06-20T22:16:13.691Z,11.65
2019-06-20T22:18:43.411Z,10.78
2019-06-20T22:21:13.090Z,12.10
2019-06-20T22:23:42.866Z,13.75
2019-06-20T22:26:12.583Z,11.55
2019-06-20T22:28:42.267Z,11.43
2019-06-20T22:31:11.952Z,13.95
2019-06-20T22:33:41.632Z,9.55
2019-06-20T22:36:11.359Z,11.43
2019-06-20T22:38:41.051Z,10.15
2019-06-20T22:41:10.739Z,11.88
2019-06-20T22:43:40.389Z,10.88
2019-06-20T22:46:10.094Z,12.85
2019-06-20T22:48:39.792Z,11.12
2019-06-20T22:51:09.486Z,13.62
2019-06-20T22:53:39.159Z,10.53
2019-06-20T22:56:08.970Z,13.18
2019-06-20T22:58:38.655Z,14.10
2019-06-20T23:01:08.322Z,14.35
2019-06-20T23:03:38.026Z,13.22
2019-06-20T23:06:07.699Z,13.35
2019-06-20T23:08:37.370Z,13.18
2019-06-20T23:11:07.435Z,13.58
2019-06-20T23:13:37.138Z,12.90
2019-06-20T23:16:06.772Z,16.50
2019-06-20T23:18:36.475Z,13.65
2019-06-20T23:21:06.156Z,17.52
2019-06-20T23:23:35.820Z,15.63
2019-06-20T23:26:07.092Z,20.27
2019-06-20T23:28:36.821Z,12.63
2019-06-20T23:31:06.413Z,14.55
2019-06-20T23:33:36.062Z,15.13
2019-06-20T23:36:05.800Z,16.90
2019-06-20T23:38:35.511Z,17.42
2019-06-20T23:41:05.277Z,14.68
2019-06-20T23:43:34.905Z,18.00
2019-06-20T23:46:04.712Z,15.32
2019-06-20T23:48:34.436Z,16.45
2019-06-20T23:51:04.133Z,17.10
2019-06-20T23:53:33.791Z,15.08
2019-06-20T23:56:07.193Z,16.15
2019-06-20T23:58:34.841Z,18.17
